Time;durP1;ratioP1;P1;durP2;ratioP2;P2;SDS_P1;SDS_P2;PMS_P1;PMS_P2;Temp;Humidity;BMP_temperature;BMP_pressure;BME280_temperature;BME280_humidity;BME280_pressure;Samples;Min_cycle;Max_cycle;Signal;HPM_P1;HPM_P2
2021/07/15 00:00:47;;;;;;;7.75;4.75;;;;;;;21.43;98.08;99673.48;2746993;85;21070;-65
2021/07/15 00:04:50;;;;;;;7.12;4.47;;;;;;;21.49;98.59;99668.55;2747508;86;21086;-63
2021/07/15 00:08:56;;;;;;;6.58;4.03;;;;;;;21.58;98.75;99663.73;2747728;86;20991;-64
2021/07/15 00:12:58;;;;;;;11.65;3.62;;;;;;;21.66;99.15;99673.53;2747145;85;21093;-64
2021/07/15 00:17:01;;;;;;;10.10;3.35;;;;;;;21.67;99.16;99672.48;2747716;85;21058;-65
2021/07/15 00:21:07;;;;;;;7.28;3.90;;;;;;;21.69;99.32;99663.09;2747708;86;21045;-64
2021/07/15 00:25:14;;;;;;;6.25;2.83;;;;;;;21.75;99.57;99665.46;2747527;86;21026;-63
2021/07/15 00:29:16;;;;;;;6.10;3.12;;;;;;;21.75;99.18;99664.65;2747804;86;21327;-64
2021/07/15 00:33:18;;;;;;;5.83;3.27;;;;;;;21.75;99.23;99662.75;2747568;86;21109;-64
2021/07/15 00:37:20;;;;;;;9.08;3.15;;;;;;;21.76;99.70;99660.36;2747692;86;21030;-64
2021/07/15 00:41:22;;;;;;;5.92;3.08;;;;;;;21.83;99.96;99658.98;2747980;86;21397;-63
2021/07/15 00:45:24;;;;;;;17.27;3.52;;;;;;;21.92;99.62;99650.93;2747584;86;21058;-64
2021/07/15 00:49:28;;;;;;;11.33;3.27;;;;;;;21.95;98.79;99653.70;2747418;86;21069;-64
2021/07/15 00:53:30;;;;;;;6.90;2.83;;;;;;;21.97;98.78;99657.03;2747837;86;21014;-64
2021/07/15 00:57:32;;;;;;;15.03;4.53;;;;;;;22.01;98.32;99669.62;2747461;86;21575;-64
2021/07/15 01:01:34;;;;;;;7.65;3.08;;;;;;;21.97;98.18;99661.09;2747468;86;21588;-63
2021/07/15 01:05:41;;;;;;;13.85;2.75;;;;;;;21.94;97.97;99660.17;2747463;85;21083;-64
2021/07/15 01:09:44;;;;;;;12.18;3.47;;;;;;;21.89;97.65;99651.88;2747936;86;21034;-64
2021/07/15 01:14:14;;;;;;;13.75;3.60;;;;;;;21.86;98.01;99646.90;2747404;85;21077;-64
2021/07/15 01:18:32;;;;;;;10.70;3.12;;;;;;;21.87;97.71;99652.62;2747250;86;21091;-63
2021/07/15 01:22:42;;;;;;;10.40;3.17;;;;;;;21.88;96.57;99642.09;2746399;86;20990;-63
2021/07/15 01:27:09;;;;;;;9.88;2.65;;;;;;;21.78;95.90;99642.02;2747472;85;21002;-63
2021/07/15 01:31:12;;;;;;;12.35;3.05;;;;;;;21.69;95.54;99641.97;2747465;86;21018;-63
2021/07/15 01:35:18;;;;;;;21.05;4.78;;;;;;;21.67;95.74;99650.83;2747326;86;21030;-63
2021/07/15 01:39:28;;;;;;;17.35;3.85;;;;;;;21.63;94.49;99656.34;2747626;86;21023;-63
2021/07/15 01:43:41;;;;;;;11.03;3.70;;;;;;;21.57;94.93;99657.17;2746222;86;21019;-62
2021/07/15 01:47:43;;;;;;;21.60;4.03;;;;;;;21.54;94.32;99664.68;2722770;86;21051;-64
2021/07/15 01:51:46;;;;;;;25.48;4.22;;;;;;;21.51;94.32;99666.47;2747801;86;21018;-64
2021/07/15 01:55:49;;;;;;;21.23;4.33;;;;;;;21.48;93.91;99660.13;2747675;86;21029;-64
2021/07/15 01:59:53;;;;;;;18.12;2.98;;;;;;;21.35;92.83;99662.87;2747427;86;21038;-64
2021/07/15 02:03:58;;;;;;;13.05;3.40;;;;;;;21.20;93.45;99659.06;2747456;86;21026;-64
2021/07/15 02:08:00;;;;;;;21.05;5.03;;;;;;;21.11;93.98;99646.28;2746861;86;21046;-63
2021/07/15 02:12:04;;;;;;;13.53;3.15;;;;;;;21.00;94.40;99660.44;2722430;85;21116;-64
2021/07/15 02:16:09;;;;;;;12.98;3.55;;;;;;;20.89;94.71;99669.50;2746790;85;21070;-64
2021/07/15 02:20:16;;;;;;;21.00;3.47;;;;;;;20.86;95.29;99671.78;2747121;86;21039;-64
2021/07/15 02:24:22;;;;;;;24.75;4.35;;;;;;;20.83;95.58;99678.42;2747528;86;21555;-64
2021/07/15 02:28:26;;;;;;;22.95;3.95;;;;;;;20.87;96.32;99675.64;2722777;86;21087;-63
2021/07/15 02:32:29;;;;;;;16.37;3.87;;;;;;;20.93;96.17;99677.50;2747171;85;21066;-63
2021/07/15 02:36:32;;;;;;;22.93;4.60;;;;;;;20.97;95.49;99682.80;2747286;86;21026;-64
2021/07/15 02:40:35;;;;;;;18.67;4.67;;;;;;;20.99;96.13;99678.55;2747373;86;21078;-64
2021/07/15 02:44:39;;;;;;;24.82;4.67;;;;;;;21.03;95.86;99678.94;2747283;86;21519;-64
2021/07/15 02:48:41;;;;;;;25.95;4.40;;;;;;;21.07;95.84;99678.31;2747069;86;21062;-64
2021/07/15 02:52:44;;;;;;;29.60;6.42;;;;;;;21.08;96.03;99675.91;2747191;85;21042;-64
2021/07/15 02:57:08;;;;;;;22.17;3.80;;;;;;;21.16;96.36;99667.30;2747261;86;21010;-63
2021/07/15 03:01:14;;;;;;;16.62;4.53;;;;;;;21.20;95.63;99677.45;2747103;86;21021;-64
2021/07/15 03:05:21;;;;;;;22.73;5.17;;;;;;;21.15;94.84;99688.08;2747178;86;21536;-62
2021/07/15 03:09:27;;;;;;;21.27;4.62;;;;;;;21.09;95.22;99691.63;2747237;86;21010;-63
2021/07/15 03:13:31;;;;;;;32.05;5.75;;;;;;;21.09;96.09;99692.45;2738603;85;21085;-62
2021/07/15 03:17:37;;;;;;;22.42;5.92;;;;;;;21.17;96.19;99703.57;2783038;85;21110;-62
2021/07/15 03:21:42;;;;;;;27.13;5.60;;;;;;;21.18;95.46;99701.71;2765455;85;21067;-64
2021/07/15 03:25:55;;;;;;;15.90;4.97;;;;;;;21.25;96.29;99714.19;2783100;85;21067;-63
2021/07/15 03:30:00;;;;;;;22.55;4.87;;;;;;;21.40;96.44;99714.45;2782979;84;21079;-64
2021/07/15 03:34:02;;;;;;;22.27;6.15;;;;;;;21.53;94.48;99716.32;2783442;85;21035;-64
2021/07/15 03:38:06;;;;;;;30.27;4.72;;;;;;;21.47;93.46;99715.28;2783101;85;21043;-63
2021/07/15 03:42:10;;;;;;;20.45;4.30;;;;;;;21.44;93.57;99723.83;2766028;85;21043;-64
2021/07/15 03:46:13;;;;;;;23.12;5.10;;;;;;;21.49;93.07;99732.13;2783427;85;21536;-64
2021/07/15 03:50:21;;;;;;;18.17;4.67;;;;;;;21.47;92.36;99734.22;2783304;85;21011;-64
2021/07/15 03:54:25;;;;;;;18.75;4.65;;;;;;;21.43;92.31;99728.09;2783594;85;21031;-63
2021/07/15 03:58:28;;;;;;;19.60;4.45;;;;;;;21.48;92.81;99736.39;2783440;85;21050;-64
2021/07/15 04:02:31;;;;;;;21.97;4.78;;;;;;;21.55;92.37;99727.77;2783554;85;20999;-62
2021/07/15 04:06:35;;;;;;;24.52;4.17;;;;;;;21.60;91.62;99717.13;2783250;85;21024;-63
2021/07/15 04:10:39;;;;;;;42.48;6.10;;;;;;;21.52;91.22;99714.66;2783290;85;21003;-64
2021/07/15 04:15:07;;;;;;;21.97;5.40;;;;;;;21.45;91.05;99707.91;2790990;85;21559;-64
2021/07/15 04:19:09;;;;;;;18.32;4.83;;;;;;;21.43;91.90;99712.70;2795277;83;21006;-65
2021/07/15 04:23:12;;;;;;;21.17;4.87;;;;;;;21.63;93.07;99728.05;2795547;85;21110;-65
2021/07/15 04:27:17;;;;;;;27.13;5.70;;;;;;;21.87;93.52;99744.13;2796402;85;21006;-65
2021/07/15 04:31:55;;;;;;;28.80;5.90;;;;;;;22.64;95.91;99748.78;2796520;84;21354;-64
2021/07/15 04:35:58;;;;;;;21.02;4.90;;;;;;;22.90;90.73;99744.75;2795619;85;21031;-67
2021/07/15 04:40:00;;;;;;;33.20;5.72;;;;;;;22.82;88.98;99745.30;2796073;85;21540;-66
2021/07/15 04:44:05;;;;;;;16.25;3.87;;;;;;;22.77;88.10;99740.23;2770711;85;21031;-68
2021/07/15 04:48:09;;;;;;;12.75;4.17;;;;;;;22.59;88.86;99745.88;2796561;85;21019;-66
2021/07/15 04:52:13;;;;;;;21.87;4.37;;;;;;;22.50;89.71;99735.00;2796371;85;20980;-66
2021/07/15 04:56:18;;;;;;;12.82;4.28;;;;;;;22.45;90.31;99733.45;2796069;83;21008;-66
2021/07/15 05:00:20;;;;;;;20.73;5.30;;;;;;;22.40;90.51;99733.58;2796536;85;21063;-66
2021/07/15 05:04:23;;;;;;;12.60;4.47;;;;;;;22.50;90.67;99736.36;2796534;85;21086;-66
2021/07/15 05:08:26;;;;;;;22.52;5.45;;;;;;;22.59;90.77;99749.13;2796553;85;21110;-66
2021/07/15 05:12:28;;;;;;;17.17;5.72;;;;;;;22.63;90.68;99745.77;2796214;85;21011;-66
2021/07/15 05:16:31;;;;;;;23.83;5.37;;;;;;;22.85;91.16;99741.34;2796242;83;21517;-66
2021/07/15 05:20:33;;;;;;;11.48;4.53;;;;;;;22.96;90.06;99735.17;2796154;84;21110;-66
2021/07/15 05:24:36;;;;;;;18.15;6.05;;;;;;;23.22;90.24;99740.09;2796405;84;20983;-66
2021/07/15 05:28:37;;;;;;;19.92;4.85;;;;;;;23.56;88.54;99739.78;2796310;85;21062;-66
2021/07/15 05:32:39;;;;;;;29.18;5.72;;;;;;;24.24;89.58;99733.86;2796592;85;21029;-66
2021/07/15 05:36:41;;;;;;;11.57;4.40;;;;;;;24.91;86.82;99734.78;2796758;85;21015;-67
2021/07/15 05:40:43;;;;;;;10.15;5.53;;;;;;;25.69;84.77;99727.03;2794703;85;21049;-66
2021/07/15 05:44:45;;;;;;;10.48;4.78;;;;;;;26.24;79.92;99731.70;2797576;85;21038;-66
2021/07/15 05:48:46;;;;;;;13.50;4.20;;;;;;;26.56;77.43;99733.92;2797788;85;21034;-66
2021/07/15 05:52:50;;;;;;;8.03;5.55;;;;;;;26.65;75.82;99737.89;2797122;85;30110;-66
2021/07/15 05:56:52;;;;;;;13.70;6.08;;;;;;;26.65;74.29;99731.07;2797211;85;21120;-65
2021/07/15 06:00:53;;;;;;;12.13;7.45;;;;;;;26.55;73.95;99720.52;2797713;85;21051;-66
2021/07/15 06:04:56;;;;;;;16.93;7.05;;;;;;;26.39;74.26;99724.33;2797920;85;21018;-66
2021/07/15 06:08:58;;;;;;;7.92;4.67;;;;;;;26.56;73.81;99743.99;2797853;85;21015;-65
2021/07/15 06:13:00;;;;;;;12.15;5.33;;;;;;;26.79;73.24;99750.67;2796351;85;21124;-66
2021/07/15 06:17:03;;;;;;;11.70;6.10;;;;;;;26.59;72.40;99753.88;2785088;85;21072;-65
2021/07/15 06:21:05;;;;;;;14.75;6.35;;;;;;;26.34;73.16;99763.26;2785646;84;21012;-65
2021/07/15 06:25:11;;;;;;;10.05;6.47;;;;;;;25.99;74.33;99757.36;2785075;85;21043;-66
2021/07/15 06:29:12;;;;;;;12.40;6.92;;;;;;;25.35;75.77;99761.67;2784995;85;21084;-66
2021/07/15 06:33:14;;;;;;;10.20;6.97;;;;;;;25.05;77.33;99767.22;2784827;85;21024;-65
2021/07/15 06:37:20;;;;;;;11.63;7.33;;;;;;;24.80;78.49;99766.88;2784909;85;21011;-66
2021/07/15 06:41:22;;;;;;;10.03;7.03;;;;;;;24.91;79.57;99763.34;2784856;85;21055;-66
2021/07/15 06:45:24;;;;;;;17.65;8.93;;;;;;;25.31;79.54;99765.94;2785116;85;21063;-67
2021/07/15 06:49:27;;;;;;;8.50;7.15;;;;;;;25.81;77.91;99768.70;2784867;85;21047;-66
2021/07/15 06:53:29;;;;;;;15.68;8.25;;;;;;;26.17;76.18;99752.83;2785375;85;21064;-66
2021/07/15 06:57:31;;;;;;;14.20;7.08;;;;;;;26.33;74.87;99741.13;2785481;85;20991;-66
2021/07/15 07:01:34;;;;;;;13.93;8.58;;;;;;;26.22;74.05;99752.92;2785610;85;21027;-65
2021/07/15 07:05:36;;;;;;;13.58;7.47;;;;;;;25.86;75.82;99756.25;2785434;85;21012;-66
2021/07/15 07:09:38;;;;;;;7.87;6.00;;;;;;;25.61;77.12;99752.73;2785173;84;21019;-66
2021/07/15 07:13:41;;;;;;;8.75;7.58;;;;;;;25.66;77.70;99753.39;2784992;85;21124;-65
2021/07/15 07:17:44;;;;;;;11.85;5.87;;;;;;;25.81;76.62;99761.89;2785706;85;21094;-65
2021/07/15 07:21:46;;;;;;;9.63;6.28;;;;;;;25.98;75.22;99756.22;2785497;85;21115;-66
2021/07/15 07:25:49;;;;;;;7.15;5.70;;;;;;;26.12;73.63;99749.44;2785290;85;21043;-66
2021/07/15 07:29:50;;;;;;;7.05;6.35;;;;;;;26.24;75.08;99758.95;2786082;85;21047;-67
2021/07/15 07:33:52;;;;;;;10.10;7.35;;;;;;;26.38;74.10;99761.69;2785557;85;21067;-65
2021/07/15 07:37:55;;;;;;;6.20;5.60;;;;;;;26.29;74.20;99756.32;2785673;85;21031;-66
2021/07/15 07:41:57;;;;;;;12.98;7.35;;;;;;;26.40;74.15;99760.62;2785634;85;21051;-65
2021/07/15 07:46:01;;;;;;;9.33;5.97;;;;;;;26.53;73.71;99760.33;2786005;85;20999;-67
2021/07/15 07:50:06;;;;;;;7.22;6.22;;;;;;;26.44;72.39;99759.05;2785953;85;21051;-66
2021/07/15 07:54:09;;;;;;;7.67;6.05;;;;;;;26.51;72.51;99763.80;2785889;85;20979;-66
2021/07/15 07:58:12;;;;;;;10.03;5.70;;;;;;;26.42;71.19;99753.83;2785855;85;21042;-65
2021/07/15 08:02:14;;;;;;;7.10;5.25;;;;;;;26.54;72.49;99748.87;2785996;84;21035;-66
2021/07/15 08:06:16;;;;;;;9.75;5.12;;;;;;;26.86;71.64;99753.27;2786456;84;21028;-66
2021/07/15 08:10:21;;;;;;;9.00;5.33;;;;;;;26.83;70.21;99756.47;2786284;85;21008;-66
2021/07/15 08:14:26;;;;;;;7.78;5.70;;;;;;;27.03;70.42;99757.91;2783501;85;21068;-65
2021/07/15 08:18:27;;;;;;;;;;;;;;;27.05;69.73;99758.48;2788381;85;21115;-66
2021/07/15 08:22:29;;;;;;;8.00;5.92;;;;;;;27.00;69.15;99752.95;2785866;84;20131;-65
2021/07/15 08:26:34;;;;;;;6.35;5.60;;;;;;;27.06;68.71;99758.77;2785450;85;21076;-65
2021/07/15 08:30:36;;;;;;;6.60;5.00;;;;;;;27.23;69.60;99765.05;2786225;85;21074;-66
2021/07/15 08:34:40;;;;;;;7.90;5.15;;;;;;;27.54;68.44;99763.89;2786507;85;21035;-66
2021/07/15 08:38:42;;;;;;;9.10;5.42;;;;;;;27.83;67.12;99772.76;2786276;85;21052;-65
2021/07/15 08:42:47;;;;;;;8.53;5.80;;;;;;;27.65;65.31;99784.79;2786349;85;21051;-66
2021/07/15 08:46:49;;;;;;;7.20;3.87;;;;;;;27.65;66.56;99785.63;2786351;85;21134;-67
2021/07/15 08:50:51;;;;;;;16.07;4.97;;;;;;;28.01;66.66;99795.39;2786818;85;21038;-66
2021/07/15 08:59:00;;;;;;;5.00;4.50;;;;;;;28.32;64.57;99802.08;2786745;85;20980;-66
2021/07/15 09:03:02;;;;;;;5.35;3.55;;;;;;;28.29;64.69;99810.77;2786850;85;21027;-66
2021/07/15 09:07:04;;;;;;;4.87;4.40;;;;;;;28.17;63.94;99816.93;2786684;85;21055;-66
2021/07/15 09:11:06;;;;;;;7.25;4.20;;;;;;;28.24;64.07;99816.19;2786547;85;21063;-66
2021/07/15 09:15:14;;;;;;;5.87;4.60;;;;;;;27.97;64.19;99817.45;2771884;85;21026;-66
2021/07/15 09:19:16;;;;;;;7.10;5.05;;;;;;;28.00;64.55;99819.67;2750480;86;21082;-66
2021/07/15 09:23:19;;;;;;;5.33;4.80;;;;;;;28.41;65.39;99826.22;2750729;86;21101;-66
2021/07/15 09:27:25;;;;;;;6.00;4.33;;;;;;;28.87;64.80;99822.61;2750795;86;21082;-66
2021/07/15 09:31:27;;;;;;;6.12;4.60;;;;;;;29.05;63.00;99831.53;2750649;85;21068;-66
2021/07/15 09:35:40;;;;;;;4.10;3.72;;;;;;;29.07;60.57;99830.73;2750524;86;21062;-66
2021/07/15 09:39:47;;;;;;;3.62;3.02;;;;;;;28.77;61.13;99826.61;2750613;85;21022;-66
2021/07/15 09:43:50;;;;;;;3.52;3.10;;;;;;;28.42;61.35;99837.45;2750011;86;21895;-67
2021/07/15 09:47:51;;;;;;;4.62;3.70;;;;;;;28.58;60.36;99824.23;2750595;85;21037;-66
2021/07/15 09:51:57;;;;;;;6.03;5.08;;;;;;;28.87;61.77;99826.72;2749930;85;21014;-66
2021/07/15 09:56:03;;;;;;;6.50;4.75;;;;;;;28.75;61.07;99817.83;2750049;86;21046;-65
2021/07/15 10:00:07;;;;;;;4.60;4.20;;;;;;;28.54;61.56;99824.47;2750395;86;21031;-66
2021/07/15 10:04:09;;;;;;;11.93;4.58;;;;;;;28.59;60.38;99828.61;2750656;86;20994;-66
2021/07/15 10:08:11;;;;;;;4.78;4.25;;;;;;;28.83;61.60;99820.13;2750427;86;21034;-67
2021/07/15 10:12:27;;;;;;;12.53;5.42;;;;;;;29.05;60.17;99830.16;2750538;86;21043;-66
2021/07/15 10:16:35;;;;;;;6.33;4.35;;;;;;;28.91;59.59;99827.88;2774594;85;21146;-67
2021/07/15 10:20:37;;;;;;;8.43;4.75;;;;;;;28.86;59.96;99827.81;2786700;85;21122;-66
2021/07/15 10:24:41;;;;;;;5.87;5.05;;;;;;;28.72;60.71;99838.32;2786795;85;21525;-66
2021/07/15 10:28:46;;;;;;;6.37;5.20;;;;;;;28.64;60.70;99838.80;2786939;85;21024;-66
2021/07/15 10:32:48;;;;;;;4.90;4.42;;;;;;;28.64;61.47;99836.88;2786720;85;20999;-66
2021/07/15 10:37:00;;;;;;;7.53;5.22;;;;;;;28.49;59.04;99832.59;2787016;85;21001;-66
2021/07/15 10:41:03;;;;;;;4.40;4.03;;;;;;;28.41;59.84;99831.70;2786660;85;20980;-66
2021/07/15 10:45:09;;;;;;;7.53;5.05;;;;;;;28.43;61.68;99824.05;2786690;85;20973;-67
2021/07/15 10:49:12;;;;;;;5.60;4.40;;;;;;;28.59;60.25;99820.41;2786448;85;21107;-66
2021/07/15 10:53:15;;;;;;;7.90;4.70;;;;;;;28.72;60.32;99823.27;2786711;85;21016;-66
2021/07/15 10:57:25;;;;;;;5.55;4.35;;;;;;;28.76;60.18;99829.88;2786859;85;21034;-66
2021/07/15 11:05:54;;;;;;;5.28;4.83;;;;;;;29.18;59.35;99835.75;2786856;85;21027;-66
2021/07/15 11:10:21;;;;;;;5.60;5.10;;;;;;;29.33;59.94;99839.17;2786476;85;21033;-66
2021/07/15 11:14:46;;;;;;;7.03;4.58;;;;;;;29.66;57.58;99838.59;2726008;87;21534;-65
2021/07/15 11:18:58;;;;;;;5.42;4.95;;;;;;;29.88;56.12;99841.77;2703997;88;21125;-66
2021/07/15 11:23:01;;;;;;;5.83;4.50;;;;;;;30.26;55.64;99838.94;2734970;87;21023;-68
2021/07/15 11:27:24;;;;;;;5.55;4.85;;;;;;;30.26;55.64;99838.94;2735433;87;21076;-66
2021/07/15 11:31:52;;;;;;;4.70;3.70;;;;;;;30.28;54.96;99832.63;2735174;85;21043;-66
2021/07/15 11:36:11;;;;;;;5.58;4.28;;;;;;;30.31;54.60;99798.64;2735296;87;21023;-66
2021/07/15 11:40:38;;;;;;;4.67;4.22;;;;;;;30.31;54.47;99824.70;2735405;87;20999;-66
2021/07/15 11:45:05;;;;;;;8.03;4.10;;;;;;;30.31;54.47;99824.70;2735350;87;21607;-66
2021/07/15 11:53:24;;;;;;;5.12;4.53;;;;;;;30.10;55.00;99821.04;2735561;85;20972;-66
2021/07/15 11:57:30;;;;;;;4.83;3.98;;;;;;;30.16;54.30;99828.75;2735499;87;21027;-67
2021/07/15 12:01:34;;;;;;;7.87;4.30;;;;;;;30.23;55.00;99820.28;2735468;87;20999;-65
2021/07/15 12:05:46;;;;;;;;;;;;;;;30.31;56.08;99819.21;2738179;87;22378;-66
2021/07/15 12:09:49;;;;;;;4.72;3.77;;;;;;;30.54;53.78;99817.08;2738424;86;20112;-65
2021/07/15 12:13:52;;;;;;;4.70;4.25;;;;;;;30.80;53.80;99808.91;2735671;87;20955;-66
2021/07/15 12:18:01;;;;;;;5.90;3.65;;;;;;;30.96;53.66;99803.43;2742391;86;21073;-67
2021/07/15 12:22:03;;;;;;;5.10;3.67;;;;;;;30.99;53.90;99806.46;2797337;85;21011;-66
2021/07/15 12:26:09;;;;;;;5.00;3.98;;;;;;;30.64;52.95;99810.25;2799677;85;21011;-66
2021/07/15 12:30:12;;;;;;;4.62;4.22;;;;;;;30.66;57.89;99813.27;2799363;85;21562;-66
2021/07/15 12:34:14;;;;;;;8.63;3.62;;;;;;;30.89;57.68;99806.44;2799663;85;20999;-68
2021/07/15 12:38:27;;;;;;;4.97;3.92;;;;;;;30.99;53.18;99802.34;2799874;85;20999;-65
2021/07/15 12:42:28;;;;;;;4.40;4.00;;;;;;;31.03;56.00;99814.95;2797937;85;21047;-66
2021/07/15 12:46:38;;;;;;;5.37;3.60;;;;;;;31.14;52.38;99805.63;2799595;85;21019;-66
2021/07/15 12:50:41;;;;;;;6.45;4.28;;;;;;;31.18;52.88;99808.66;2799519;84;21043;-66
2021/07/15 12:54:49;;;;;;;4.22;3.12;;;;;;;31.24;55.62;99808.95;2799594;84;21050;-66
2021/07/15 12:59:06;;;;;;;;;;;;;;;31.35;53.02;99807.01;2801379;84;21043;-67
2021/07/15 13:03:09;;;;;;;3.85;3.55;;;;;;;31.35;52.45;99805.64;2799499;85;20114;-68
2021/07/15 13:07:11;;;;;;;3.42;3.12;;;;;;;31.46;52.04;99799.04;2799960;85;22328;-66
2021/07/15 13:15:37;;;;;;;6.33;3.95;;;;;;;31.87;52.48;99789.86;2796852;85;21146;-65
2021/07/15 13:19:43;;;;;;;3.37;2.85;;;;;;;32.08;50.93;99792.53;2787292;85;21010;-65
2021/07/15 13:24:05;;;;;;;5.12;3.27;;;;;;;32.05;51.23;99790.34;2787665;85;21088;-66
2021/07/15 13:28:10;;;;;;;5.12;3.02;;;;;;;32.05;52.11;99788.97;2787744;85;21048;-67
2021/07/15 13:32:25;;;;;;;4.22;3.58;;;;;;;32.06;51.00;99778.23;2787296;85;21070;-64
2021/07/15 13:36:33;;;;;;;4.17;3.77;;;;;;;32.21;50.62;99775.95;2786860;85;21552;-66
2021/07/15 13:40:38;;;;;;;7.20;3.45;;;;;;;32.36;50.08;99782.52;2788313;84;21110;-65
2021/07/15 13:44:51;;;;;;;8.35;4.17;;;;;;;32.51;49.16;99770.03;2788401;84;21011;-60
2021/07/15 13:48:53;;;;;;;5.15;4.62;;;;;;;32.45;48.84;99778.07;2788066;85;21046;-61
2021/07/15 13:52:57;;;;;;;15.72;4.05;;;;;;;32.39;49.64;99767.64;2788264;85;20964;-61
2021/07/15 13:57:06;;;;;;;;;;;;;;;32.25;49.85;99777.05;2790771;85;21105;-62
2021/07/15 14:01:08;;;;;;;13.60;4.65;;;;;;;31.83;53.59;99776.41;2786844;85;20103;-64
2021/07/15 14:05:13;;;;;;;5.03;4.00;;;;;;;31.46;53.42;99777.05;2787636;85;21031;-61
2021/07/15 14:09:15;;;;;;;6.78;3.95;;;;;;;31.45;55.28;99767.70;2788037;85;21047;-62
2021/07/15 14:13:17;;;;;;;4.62;3.02;;;;;;;31.61;53.41;99774.81;2788035;85;21015;-62
2021/07/15 14:17:22;;;;;;;7.53;4.10;;;;;;;31.83;52.06;99763.20;2821814;83;21083;-66
2021/07/15 14:21:27;;;;;;;6.22;3.72;;;;;;;31.72;52.25;99761.02;2847814;83;21039;-66
2021/07/15 14:25:32;;;;;;;4.05;3.65;;;;;;;31.63;50.60;99767.11;2848095;83;20952;-68
2021/07/15 14:29:35;;;;;;;7.95;3.90;;;;;;;31.48;51.48;99758.36;2847166;83;21027;-65
2021/07/15 14:33:39;;;;;;;4.37;3.55;;;;;;;31.41;51.20;99760.56;2847659;83;21477;-67
2021/07/15 14:37:43;;;;;;;4.87;4.37;;;;;;;31.38;51.52;99756.19;2848108;83;20985;-67
2021/07/15 14:41:45;;;;;;;6.90;4.28;;;;;;;31.31;51.54;99755.91;2848051;83;20968;-67
2021/07/15 14:46:10;;;;;;;4.20;3.87;;;;;;;31.24;51.26;99754.55;2847631;83;21031;-66
2021/07/15 14:50:15;;;;;;;4.55;3.55;;;;;;;31.15;50.99;99755.63;2790589;85;21039;-66
2021/07/15 14:54:18;;;;;;;4.70;4.20;;;;;;;31.07;51.41;99757.03;2790351;85;20987;-65
2021/07/15 14:58:22;;;;;;;5.33;4.80;;;;;;;30.77;52.17;99758.67;2790568;85;20976;-63
2021/07/15 15:02:24;;;;;;;7.22;4.90;;;;;;;30.50;52.49;99752.86;2790589;85;21070;-65
2021/07/15 15:06:26;;;;;;;4.85;3.67;;;;;;;30.14;53.71;99748.11;2764529;85;21014;-66
2021/07/15 15:10:28;;;;;;;5.67;4.33;;;;;;;29.88;55.11;99748.56;2749320;86;21028;-65
2021/07/15 15:14:30;;;;;;;5.40;4.17;;;;;;;29.68;54.84;99756.13;2789626;85;20999;-66
2021/07/15 15:18:32;;;;;;;5.05;4.00;;;;;;;29.37;56.47;99755.39;2707267;86;21080;-66
2021/07/15 15:22:34;;;;;;;4.00;3.62;;;;;;;29.37;56.47;99755.39;2793470;85;21019;-66
2021/07/15 15:26:38;;;;;;;11.38;4.95;;;;;;;29.26;55.60;99733.95;2793112;85;20995;-68
2021/07/15 15:30:40;;;;;;;4.67;4.17;;;;;;;29.42;55.05;99760.92;2791254;85;21019;-67
2021/07/15 15:34:43;;;;;;;5.92;4.40;;;;;;;29.50;54.51;99762.34;2793458;85;20971;-67
2021/07/15 15:38:45;;;;;;;8.85;4.28;;;;;;;29.50;54.51;99762.34;2793742;85;20980;-66
2021/07/15 15:42:47;;;;;;;6.80;4.40;;;;;;;29.52;54.22;99757.98;2793529;85;21320;-65
2021/07/15 15:47:13;;;;;;;5.45;3.95;;;;;;;29.61;54.26;99771.44;2793635;85;21027;-67
2021/07/15 15:51:16;;;;;;;3.92;3.60;;;;;;;29.83;53.79;99766.34;2793502;85;21058;-67
2021/07/15 15:55:19;;;;;;;6.33;3.92;;;;;;;30.08;53.74;99764.84;2793463;85;20991;-65
2021/07/15 15:59:21;;;;;;;7.00;4.28;;;;;;;30.00;53.37;99772.44;2793501;85;20987;-66
2021/07/15 16:03:23;;;;;;;6.33;4.75;;;;;;;29.83;55.88;99759.48;2793457;85;21019;-67
2021/07/15 16:07:29;;;;;;;6.25;4.67;;;;;;;29.83;55.88;99759.48;2793364;85;21489;-66
2021/07/15 16:11:29;;;;;;;5.12;4.28;;;;;;;29.65;56.40;99760.22;2793338;85;21007;-66
2021/07/15 16:15:36;;;;;;;6.55;4.20;;;;;;;29.28;58.27;99763.27;2793247;85;21278;-65
2021/07/15 16:19:38;;;;;;;4.62;4.22;;;;;;;29.28;58.27;99763.27;2797041;83;20987;-66
2021/07/15 16:23:41;;;;;;;6.55;3.83;;;;;;;29.09;58.99;99764.25;2796948;85;20959;-66
2021/07/15 16:27:44;;;;;;;6.75;3.90;;;;;;;28.88;59.60;99774.19;2758013;85;21071;-67
2021/07/15 16:31:46;;;;;;;5.45;4.42;;;;;;;28.65;59.67;99770.13;2751085;85;21599;-64
2021/07/15 16:35:50;;;;;;;9.10;5.28;;;;;;;28.44;60.90;99766.38;2750825;86;21022;-64
2021/07/15 16:39:52;;;;;;;;;;;;;;;28.32;61.57;99782.09;2753169;86;21583;-63
2021/07/15 16:43:54;;;;;;;5.28;4.53;;;;;;;28.21;62.14;99777.90;2749868;86;20120;-63
2021/07/15 16:47:56;;;;;;;7.37;4.90;;;;;;;28.16;62.08;99781.11;2749870;86;21078;-62
2021/07/15 16:51:58;;;;;;;6.80;4.83;;;;;;;28.16;62.06;99779.18;2750232;85;21062;-67
2021/07/15 16:56:03;;;;;;;6.58;4.92;;;;;;;28.18;62.44;99777.02;2750294;86;21014;-65
2021/07/15 17:00:09;;;;;;;6.45;5.10;;;;;;;28.25;62.60;99787.76;2749850;86;21062;-65
2021/07/15 17:04:13;;;;;;;10.63;5.65;;;;;;;28.29;63.53;99793.00;2749761;86;21043;-65
2021/07/15 17:08:15;;;;;;;8.93;5.28;;;;;;;28.34;62.92;99794.97;2749718;86;21047;-65
2021/07/15 17:12:17;;;;;;;4.72;3.80;;;;;;;28.34;63.49;99793.08;2750042;86;20983;-65
2021/07/15 17:16:19;;;;;;;9.30;5.55;;;;;;;28.32;67.09;99803.97;2749686;85;21094;-65
2021/07/15 17:20:21;;;;;;;5.70;4.87;;;;;;;28.15;66.58;99814.96;2749830;86;21015;-65
2021/07/15 17:24:23;;;;;;;6.97;4.03;;;;;;;27.91;66.50;99817.95;2749708;86;21038;-66
2021/07/15 17:28:27;;;;;;;8.85;4.47;;;;;;;27.49;65.19;99835.06;2749701;85;21054;-65
2021/07/15 17:32:29;;;;;;;7.40;5.20;;;;;;;26.97;64.90;99837.49;2749520;85;21646;-66
2021/07/15 17:36:32;;;;;;;13.03;7.15;;;;;;;26.51;67.23;99845.09;2749653;86;21015;-66
2021/07/15 17:40:34;;;;;;;9.33;5.85;;;;;;;26.15;69.87;99850.33;2749455;86;21042;-65
2021/07/15 17:44:37;;;;;;;11.50;5.75;;;;;;;25.76;71.34;99855.77;2748692;86;21539;-65
2021/07/15 17:48:39;;;;;;;9.00;6.10;;;;;;;25.42;72.59;99858.20;2748980;86;21018;-66
2021/07/15 17:52:40;;;;;;;8.50;5.10;;;;;;;25.24;73.41;99864.54;2748870;86;21046;-64
2021/07/15 17:56:42;;;;;;;7.97;5.97;;;;;;;25.00;73.83;99874.01;2748955;86;21022;-66
2021/07/15 18:00:44;;;;;;;8.90;5.65;;;;;;;24.76;74.10;99882.60;2748981;85;21019;-66
2021/07/15 18:04:46;;;;;;;9.35;6.30;;;;;;;24.62;74.80;99885.48;2748552;86;21030;-65
2021/07/15 18:08:48;;;;;;;8.13;6.03;;;;;;;24.53;75.62;99878.69;2748210;86;21066;-65
2021/07/15 18:12:50;;;;;;;9.15;6.75;;;;;;;24.32;76.84;99883.53;2748404;86;21058;-64
2021/07/15 18:16:51;;;;;;;8.40;5.97;;;;;;;24.08;77.83;99887.45;2753107;85;21099;-64
2021/07/15 18:20:53;;;;;;;9.75;6.65;;;;;;;23.88;79.34;99884.93;2784661;85;21019;-66
2021/07/15 18:24:55;;;;;;;8.78;6.33;;;;;;;23.67;80.85;99879.37;2784133;85;21522;-66
2021/07/15 18:28:57;;;;;;;10.08;6.60;;;;;;;23.47;82.40;99875.45;2784100;85;21075;-64
2021/07/15 18:32:59;;;;;;;22.32;7.70;;;;;;;23.40;83.22;99871.46;2784087;85;21019;-66
2021/07/15 18:37:02;;;;;;;8.63;7.33;;;;;;;23.34;83.58;99879.95;2784101;85;21038;-65
2021/07/15 18:41:04;;;;;;;7.15;6.42;;;;;;;23.29;84.46;99878.44;2784252;85;21031;-66
2021/07/15 18:45:11;;;;;;;8.80;7.12;;;;;;;23.23;84.96;99869.25;2783674;85;21138;-65
2021/07/15 18:49:13;;;;;;;10.78;6.97;;;;;;;23.23;85.29;99869.25;2783922;85;22270;-65
2021/07/15 18:53:14;;;;;;;7.70;6.90;;;;;;;23.29;85.30;99877.08;2783992;85;21071;-66
2021/07/15 18:57:16;;;;;;;11.70;7.95;;;;;;;23.24;85.26;99872.78;2783900;84;21074;-65
2021/07/15 19:01:18;;;;;;;9.35;6.67;;;;;;;23.17;85.72;99887.75;2783829;84;21420;-66
2021/07/15 19:05:21;;;;;;;16.80;8.50;;;;;;;23.02;85.97;99885.34;2783926;85;21023;-65
2021/07/15 19:09:23;;;;;;;10.00;7.40;;;;;;;22.99;86.56;99893.08;2783988;85;21061;-64
2021/07/15 19:13:25;;;;;;;10.03;8.23;;;;;;;22.82;87.28;99895.78;2783766;85;21000;-66
2021/07/15 19:17:27;;;;;;;11.75;7.87;;;;;;;22.75;88.12;99903.63;2776034;85;21043;-66
2021/07/15 19:21:29;;;;;;;7.78;6.83;;;;;;;22.65;88.53;99926.63;2747556;86;21520;-65
2021/07/15 19:25:35;;;;;;;12.45;7.90;;;;;;;22.66;88.55;99921.52;2747750;86;21058;-64